Time;durP1;ratioP1;P1;durP2;ratioP2;P2;SDS_P1;SDS_P2;PMS_P1;PMS_P2;Temp;Humidity;BMP_temperature;BMP_pressure;BME280_temperature;BME280_humidity;BME280_pressure;Samples;Min_cycle;Max_cycle;Signal;HPM_P1;HPM_P2
2021/03/12 00:00:26;;;;;;;8.10;7.07;;;;;;;18.96;53.14;100205.97;2094851;28;20422;-44
2021/03/12 00:01:27;;;;;;;10.32;6.40;;;;;;;18.98;53.30;100216.72;2098409;28;20343;-44
2021/03/12 00:02:27;;;;;;;9.70;7.00;;;;;;;18.97;53.15;100204.97;2097790;28;20055;-46
2021/03/12 00:03:31;;;;;;;9.43;6.87;;;;;;;18.97;53.25;100201.38;2097266;28;20032;-45
2021/03/12 00:04:31;;;;;;;8.07;6.68;;;;;;;18.97;53.19;100193.16;2092957;28;20420;-45
2021/03/12 00:05:31;;;;;;;8.83;7.00;;;;;;;18.98;53.10;100194.88;2098184;28;20032;-48
2021/03/12 00:06:32;;;;;;;9.30;7.30;;;;;;;18.97;53.19;100195.91;2092400;28;20143;-44
2021/03/12 00:07:32;;;;;;;9.33;7.63;;;;;;;18.98;53.28;100186.69;2097505;28;20430;-45
2021/03/12 00:08:51;;;;;;;9.27;7.33;;;;;;;18.97;53.12;100190.44;2092516;28;20033;-45
2021/03/12 00:09:51;;;;;;;9.07;6.95;;;;;;;18.97;53.29;100191.28;2095127;28;20418;-45
2021/03/12 00:10:52;;;;;;;8.63;7.50;;;;;;;18.97;53.18;100184.97;2097523;28;20103;-46
2021/03/12 00:11:52;;;;;;;10.83;7.73;;;;;;;18.97;53.08;100187.72;2098079;28;20020;-45
2021/03/12 00:12:54;;;;;;;10.97;8.20;;;;;;;18.97;53.27;100183.09;2095446;28;20686;-44
2021/03/12 00:13:54;;;;;;;10.20;8.07;;;;;;;18.97;53.12;100179.50;2094293;28;20047;-45
2021/03/12 00:14:55;;;;;;;12.27;8.67;;;;;;;18.97;53.16;100184.97;2091780;28;20036;-45
2021/03/12 00:15:55;;;;;;;9.53;8.40;;;;;;;18.98;53.21;100186.69;2098618;28;20056;-45
2021/03/12 00:16:56;;;;;;;9.30;7.70;;;;;;;18.96;53.14;100180.50;2096049;28;20025;-45
2021/03/12 00:17:56;;;;;;;11.87;8.67;;;;;;;18.97;53.35;100182.25;2097537;28;20050;-45
2021/03/12 00:18:57;;;;;;;11.07;8.10;;;;;;;18.96;53.24;100177.78;2095661;28;20059;-44
2021/03/12 00:19:57;;;;;;;10.77;8.37;;;;;;;18.97;53.31;100179.50;2094841;28;20134;-47
2021/03/12 00:20:58;;;;;;;13.03;8.50;;;;;;;18.96;53.16;100178.66;2097545;28;20324;-44
2021/03/12 00:21:58;;;;;;;10.67;8.43;;;;;;;18.96;53.26;100184.13;2096648;28;20096;-45
2021/03/12 00:22:59;;;;;;;11.20;9.27;;;;;;;18.95;53.27;100187.00;2097985;28;20035;-45
2021/03/12 00:24:00;;;;;;;11.55;9.05;;;;;;;18.95;53.21;100184.25;2089689;28;20112;-55
2021/03/12 00:25:00;;;;;;;12.67;8.93;;;;;;;18.96;53.17;100183.22;2094669;28;20498;-45
2021/03/12 00:26:01;;;;;;;10.00;8.43;;;;;;;18.96;53.40;100185.97;2097863;28;20402;-45
2021/03/12 00:27:02;;;;;;;9.13;7.70;;;;;;;18.97;53.26;100179.50;2097859;28;20032;-45
2021/03/12 00:28:04;;;;;;;13.97;9.37;;;;;;;18.95;53.20;100179.66;2098158;28;20446;-45
2021/03/12 00:29:04;;;;;;;9.93;8.27;;;;;;;18.94;53.33;100180.66;2097808;28;20055;-45
2021/03/12 00:30:07;;;;;;;11.90;8.73;;;;;;;18.94;53.32;100179.81;2097924;28;20152;-44
2021/03/12 00:31:08;;;;;;;9.45;8.05;;;;;;;18.94;53.28;100185.28;2090767;28;20031;-44
2021/03/12 00:32:09;;;;;;;10.75;8.57;;;;;;;18.94;53.19;100179.81;2090789;28;20046;-44
2021/03/12 00:33:10;;;;;;;10.90;8.70;;;;;;;18.93;53.29;100178.06;2090959;28;20037;-46
2021/03/12 00:34:11;;;;;;;11.50;8.57;;;;;;;18.93;53.27;100183.53;2096398;28;20024;-46
2021/03/12 00:35:12;;;;;;;9.37;8.00;;;;;;;18.93;53.39;100184.38;2096955;28;20034;-46
2021/03/12 00:36:13;;;;;;;10.35;8.30;;;;;;;18.92;53.32;100184.56;2090339;28;20017;-45
2021/03/12 00:37:13;;;;;;;10.45;8.93;;;;;;;18.92;53.31;100187.28;2094834;28;20081;-45
2021/03/12 00:38:14;;;;;;;10.10;8.60;;;;;;;18.92;53.29;100193.59;2097802;28;20198;-44
2021/03/12 00:39:14;;;;;;;10.43;8.97;;;;;;;18.93;53.46;100189.00;2093631;28;20064;-47
2021/03/12 00:40:19;;;;;;;11.13;9.10;;;;;;;18.92;53.46;100184.56;2094761;28;20033;-45
2021/03/12 00:41:19;;;;;;;10.23;8.15;;;;;;;18.91;53.48;100186.41;2097835;28;20024;-46
2021/03/12 00:42:22;;;;;;;10.03;8.73;;;;;;;18.90;53.36;100184.69;2094816;28;20057;-45
2021/03/12 00:43:23;;;;;;;9.65;8.32;;;;;;;18.91;53.36;100178.22;2098550;28;20055;-45
2021/03/12 00:44:25;;;;;;;8.88;7.38;;;;;;;18.91;53.48;100185.53;2094205;28;20035;-46
2021/03/12 00:45:30;;;;;;;9.80;8.10;;;;;;;18.91;53.34;100174.63;2090525;28;20387;-45
2021/03/12 00:46:31;;;;;;;10.43;8.63;;;;;;;18.91;53.20;100174.63;2097765;28;20032;-45
2021/03/12 00:47:31;;;;;;;11.20;8.53;;;;;;;18.91;53.41;100180.09;2090828;28;20084;-46
2021/03/12 00:48:32;;;;;;;12.30;8.57;;;;;;;18.90;53.29;100181.09;2089851;28;20039;-46
2021/03/12 00:49:32;;;;;;;11.57;8.60;;;;;;;18.89;53.38;100174.78;2095673;28;20343;-45
2021/03/12 00:50:36;;;;;;;9.27;7.60;;;;;;;18.90;53.50;100172.91;2095646;28;20732;-45
2021/03/12 00:51:36;;;;;;;10.50;9.00;;;;;;;18.91;53.32;100169.16;2093782;28;20032;-47
2021/03/12 00:52:37;;;;;;;11.10;9.10;;;;;;;18.90;53.40;100164.72;2097349;28;20020;-45
2021/03/12 00:53:38;;;;;;;10.45;8.45;;;;;;;18.89;53.59;100172.06;2093945;28;20024;-44
2021/03/12 00:54:38;;;;;;;9.73;8.73;;;;;;;18.91;53.37;100174.63;2097435;28;20016;-45
2021/03/12 00:55:39;;;;;;;12.30;9.40;;;;;;;18.89;53.38;100165.72;2097325;28;20162;-45
2021/03/12 00:56:39;;;;;;;12.67;8.97;;;;;;;18.89;53.26;100165.72;2089777;28;20545;-45
2021/03/12 00:57:40;;;;;;;11.63;8.87;;;;;;;18.89;53.40;100160.25;2091150;28;20036;-45
2021/03/12 00:58:41;;;;;;;12.70;9.00;;;;;;;18.89;53.52;100160.25;2088872;28;20112;-45
2021/03/12 00:59:41;;;;;;;11.00;8.75;;;;;;;18.88;53.32;100161.25;2091619;28;20036;-47
2021/03/12 01:00:42;;;;;;;12.53;8.97;;;;;;;18.88;53.33;100164.00;2097549;28;20080;-45
2021/03/12 01:01:42;;;;;;;11.20;9.00;;;;;;;18.89;53.41;100160.25;2095504;28;20047;-46
2021/03/12 01:02:43;;;;;;;11.17;8.93;;;;;;;18.88;53.52;100164.84;2096725;28;20042;-45
2021/03/12 01:03:44;;;;;;;11.17;9.20;;;;;;;18.88;53.52;100158.53;2090563;28;20025;-45
2021/03/12 01:04:44;;;;;;;10.67;9.00;;;;;;;18.87;53.48;100154.94;2097297;28;20021;-45
2021/03/12 01:05:45;;;;;;;11.17;9.57;;;;;;;18.87;53.34;100145.91;2097270;28;20317;-47
2021/03/12 01:06:45;;;;;;;10.17;8.30;;;;;;;18.88;53.43;100147.59;2097072;28;20111;-44
2021/03/12 01:07:46;;;;;;;11.03;9.60;;;;;;;18.87;53.59;100157.69;2089251;28;20502;-45
2021/03/12 01:08:47;;;;;;;11.10;8.43;;;;;;;18.88;53.34;100164.00;2089388;28;20079;-45
2021/03/12 01:09:48;;;;;;;11.00;9.03;;;;;;;18.87;53.50;100162.28;2090697;28;20704;-45
2021/03/12 01:10:49;;;;;;;11.95;9.25;;;;;;;18.87;53.31;100156.81;2095964;28;20025;-45
2021/03/12 01:11:49;;;;;;;11.47;9.63;;;;;;;18.86;53.34;100155.94;2089695;28;20441;-48
2021/03/12 01:12:50;;;;;;;10.13;8.57;;;;;;;18.85;53.37;100157.81;2091526;28;20021;-45
2021/03/12 01:13:51;;;;;;;12.68;9.70;;;;;;;18.84;53.38;100156.09;2091006;28;20324;-45
2021/03/12 01:14:52;;;;;;;10.93;8.63;;;;;;;18.85;53.42;100146.91;2091958;28;20028;-45
2021/03/12 01:15:52;;;;;;;11.00;9.50;;;;;;;18.85;53.38;100143.31;2089548;28;20072;-46
2021/03/12 01:16:53;;;;;;;11.00;9.07;;;;;;;18.85;53.35;100148.78;2092780;28;20016;-44
2021/03/12 01:17:54;;;;;;;11.87;10.50;;;;;;;18.85;53.50;100149.63;2097095;28;20012;-46
2021/03/12 01:18:54;;;;;;;12.38;9.52;;;;;;;18.84;53.43;100147.91;2095085;28;20194;-44
2021/03/12 01:19:55;;;;;;;14.13;9.53;;;;;;;18.84;53.53;100147.91;2093124;28;20090;-45
2021/03/12 01:20:55;;;;;;;11.50;9.10;;;;;;;18.83;53.50;100145.31;2091497;28;20024;-45
2021/03/12 01:21:56;;;;;;;11.80;9.90;;;;;;;18.84;53.41;100144.31;2095978;28;20024;-45
2021/03/12 01:22:58;;;;;;;11.20;9.70;;;;;;;18.83;53.45;100146.16;2096398;28;20048;-45
2021/03/12 01:23:58;;;;;;;10.73;8.50;;;;;;;18.83;53.42;100140.72;2090672;28;20033;-46
2021/03/12 01:25:00;;;;;;;12.03;9.20;;;;;;;18.83;53.35;100134.38;2093756;28;20048;-45
2021/03/12 01:26:00;;;;;;;10.40;9.30;;;;;;;18.83;53.59;100134.38;2095092;28;20025;-45
2021/03/12 01:27:01;;;;;;;11.33;9.10;;;;;;;18.83;53.44;100148.91;2090401;28;20094;-45
2021/03/12 01:28:02;;;;;;;12.53;10.17;;;;;;;18.82;53.58;100144.47;2097191;28;20020;-46
2021/03/12 01:29:02;;;;;;;11.80;8.60;;;;;;;18.83;53.47;100140.72;2091838;28;20028;-46
2021/03/12 01:30:07;;;;;;;12.23;9.33;;;;;;;18.82;53.53;100133.53;2094149;28;20021;-47
2021/03/12 01:31:08;;;;;;;10.63;8.60;;;;;;;18.81;53.53;100128.22;2097460;28;20033;-45
2021/03/12 01:32:08;;;;;;;10.87;9.73;;;;;;;18.81;53.47;100129.09;2092251;28;20025;-48
2021/03/12 01:33:09;;;;;;;14.17;10.10;;;;;;;18.81;53.45;100126.38;2090092;28;20040;-48
2021/03/12 01:34:10;;;;;;;11.73;9.70;;;;;;;18.81;53.49;100137.28;2093212;28;20035;-45
2021/03/12 01:35:11;;;;;;;12.90;10.37;;;;;;;18.81;53.44;100131.84;2089711;28;20064;-46
2021/03/12 01:36:11;;;;;;;13.88;10.35;;;;;;;18.80;53.39;100130.09;2089589;28;20123;-45
2021/03/12 01:37:12;;;;;;;12.43;10.23;;;;;;;18.81;53.57;100125.47;2095257;28;20016;-46
2021/03/12 01:38:12;;;;;;;12.87;9.53;;;;;;;18.80;53.41;100135.56;2097372;28;20024;-45
2021/03/12 01:39:13;;;;;;;11.30;9.40;;;;;;;18.81;53.33;100136.41;2095363;28;20350;-46
2021/03/12 01:40:19;;;;;;;10.40;8.47;;;;;;;18.80;53.58;100130.09;2093737;28;20069;-45
2021/03/12 01:41:20;;;;;;;12.25;9.38;;;;;;;18.80;53.31;100137.44;2093402;28;20054;-46
2021/03/12 01:42:20;;;;;;;11.73;9.60;;;;;;;18.81;53.44;100130.94;2094962;28;20403;-46
2021/03/12 01:43:21;;;;;;;11.23;9.33;;;;;;;18.80;53.42;100131.97;2093174;28;20067;-46
2021/03/12 01:44:21;;;;;;;13.67;10.07;;;;;;;18.80;53.51;100135.56;2095927;28;20462;-46
2021/03/12 01:45:36;;;;;;;13.53;9.47;;;;;;;18.79;53.56;100136.56;2094980;28;20020;-46
2021/03/12 01:46:37;;;;;;;11.95;9.38;;;;;;;18.80;53.39;100141.00;2095531;28;20028;-45
2021/03/12 01:47:37;;;;;;;11.00;9.23;;;;;;;18.79;53.42;100139.31;2096347;28;20084;-47
2021/03/12 01:48:38;;;;;;;11.50;9.03;;;;;;;18.79;53.45;100144.75;2097512;28;20017;-49
2021/03/12 01:49:39;;;;;;;11.37;10.00;;;;;;;18.79;53.53;100142.03;2096455;28;20023;-45
2021/03/12 01:50:42;;;;;;;10.47;9.37;;;;;;;18.80;53.41;100142.88;2093295;28;20385;-46
2021/03/12 01:51:42;;;;;;;13.68;9.45;;;;;;;18.79;53.43;100138.41;2097159;28;20013;-45
2021/03/12 01:52:44;;;;;;;11.37;9.50;;;;;;;18.80;53.28;100140.16;2096466;28;20104;-45
2021/03/12 01:53:44;;;;;;;12.15;9.85;;;;;;;18.79;53.42;100132.94;2097374;28;20020;-47
2021/03/12 01:54:45;;;;;;;13.67;9.47;;;;;;;18.79;53.34;100136.56;2090796;28;20112;-45
2021/03/12 01:55:45;;;;;;;11.03;8.93;;;;;;;18.78;53.52;100126.63;2094328;28;20035;-46
2021/03/12 01:56:46;;;;;;;10.70;9.17;;;;;;;18.78;53.57;100128.50;2092008;28;20021;-46
2021/03/12 01:57:47;;;;;;;13.27;10.43;;;;;;;18.77;53.28;100119.47;2093243;28;20048;-45
2021/03/12 01:58:47;;;;;;;11.60;9.65;;;;;;;18.77;53.32;100130.38;2094172;28;20116;-45
2021/03/12 01:59:48;;;;;;;10.80;9.27;;;;;;;18.78;53.55;100132.09;2095291;28;20037;-46
2021/03/12 02:00:49;;;;;;;12.03;9.80;;;;;;;18.79;53.37;100124.75;2096999;28;20017;-46
2021/03/12 02:01:50;;;;;;;12.45;9.48;;;;;;;18.77;53.50;100130.38;2097310;28;20262;-45
2021/03/12 02:02:50;;;;;;;11.80;9.70;;;;;;;18.76;53.45;100117.72;2094201;28;20025;-46
2021/03/12 02:03:51;;;;;;;11.47;9.87;;;;;;;18.76;53.57;100106.81;2097211;28;20021;-48
2021/03/12 02:04:51;;;;;;;13.80;10.10;;;;;;;18.76;53.54;100117.72;2095809;28;20354;-45
2021/03/12 02:05:52;;;;;;;12.20;10.30;;;;;;;18.77;53.52;100110.41;2096384;28;20032;-45
2021/03/12 02:06:52;;;;;;;12.37;10.23;;;;;;;18.76;53.42;100111.41;2092506;28;20020;-45
2021/03/12 02:07:53;;;;;;;11.70;10.50;;;;;;;18.76;53.50;100115.00;2094989;28;20314;-44
2021/03/12 02:08:54;;;;;;;11.13;9.60;;;;;;;18.77;53.42;100116.75;2097437;28;20025;-46
2021/03/12 02:09:55;;;;;;;11.80;9.77;;;;;;;18.77;53.39;100114.00;2096458;28;20205;-45
2021/03/12 02:10:56;;;;;;;11.70;10.30;;;;;;;18.77;53.51;100108.53;2098250;28;20059;-45
2021/03/12 02:12:05;;;;;;;12.98;10.27;;;;;;;18.78;53.47;100115.72;2097337;28;20107;-44
2021/03/12 02:13:31;;;;;;;13.15;10.23;;;;;;;18.78;53.40;100110.25;2098717;28;20025;-46
2021/03/12 02:14:40;;;;;;;13.45;10.07;;;;;;;18.78;53.25;100115.72;2097986;28;20228;-46
2021/03/12 02:15:46;;;;;;;15.50;11.02;;;;;;;18.79;53.42;100114.72;2096305;28;20047;-47
2021/03/12 02:16:56;;;;;;;11.23;9.38;;;;;;;18.79;53.37;100109.25;2098172;28;20094;-45
2021/03/12 02:18:05;;;;;;;12.00;9.82;;;;;;;18.81;53.39;100109.09;2092546;28;20120;-45
2021/03/12 02:19:41;;;;;;;11.77;10.15;;;;;;;18.80;53.42;100104.66;2098646;28;20485;-46
2021/03/12 02:20:48;;;;;;;12.98;9.80;;;;;;;18.80;53.32;100101.94;2097434;28;20048;-44
2021/03/12 02:21:55;;;;;;;13.40;11.30;;;;;;;18.80;53.26;100089.13;2098900;28;20382;-45
2021/03/12 02:23:16;;;;;;;12.20;9.75;;;;;;;18.80;53.41;100091.84;2098135;28;20031;-45
2021/03/12 02:24:30;;;;;;;13.50;10.45;;;;;;;18.81;53.40;100092.72;2092817;28;20032;-45
2021/03/12 02:25:32;;;;;;;12.82;10.15;;;;;;;18.80;53.31;100086.38;2091731;28;20247;-46
2021/03/12 02:26:41;;;;;;;14.02;11.07;;;;;;;18.81;53.48;100092.72;2098952;28;20040;-46
2021/03/12 02:27:43;;;;;;;13.68;11.00;;;;;;;18.81;53.46;100093.59;2092944;28;20055;-46
2021/03/12 02:28:47;;;;;;;13.50;11.30;;;;;;;18.81;53.43;100099.06;2090868;28;20021;-44
2021/03/12 02:29:54;;;;;;;12.13;10.50;;;;;;;18.80;53.42;100083.66;2096317;28;20615;-46
2021/03/12 02:30:57;;;;;;;12.20;10.88;;;;;;;18.80;53.34;100082.81;2090973;28;20025;-45
2021/03/12 02:32:00;;;;;;;12.75;10.18;;;;;;;18.80;53.48;100075.47;2095503;28;20249;-47
2021/03/12 02:33:02;;;;;;;14.07;10.90;;;;;;;18.81;53.37;100084.50;2098606;28;20024;-45
2021/03/12 02:34:05;;;;;;;13.40;11.23;;;;;;;18.79;53.30;100081.94;2096831;28;20033;-45
2021/03/12 02:35:21;;;;;;;13.35;11.60;;;;;;;18.80;53.40;100071.88;2098479;28;20097;-46
2021/03/12 02:36:22;;;;;;;12.63;10.90;;;;;;;18.80;53.48;100069.16;2098297;28;20024;-45
2021/03/12 02:37:23;;;;;;;;;;;;;;;18.80;53.40;100069.16;2098286;28;20071;-45
2021/03/12 02:38:26;;;;;;;12.32;10.77;;;;;;;18.79;53.25;100057.38;2098706;28;19962;-45
2021/03/12 02:39:30;;;;;;;13.73;11.90;;;;;;;18.80;53.41;100059.09;2097838;28;20066;-46
2021/03/12 02:40:31;;;;;;;13.57;11.93;;;;;;;18.79;53.46;100062.84;2094599;28;20064;-46
2021/03/12 02:41:33;;;;;;;14.05;11.90;;;;;;;18.79;53.31;100065.56;2098023;28;20031;-45
2021/03/12 02:42:35;;;;;;;14.27;12.40;;;;;;;18.79;53.42;100062.84;2095142;28;20057;-45
2021/03/12 02:43:37;;;;;;;13.20;11.60;;;;;;;18.78;53.50;100066.56;2098588;28;20327;-46
2021/03/12 02:44:37;;;;;;;15.27;11.15;;;;;;;18.79;53.47;100083.81;2098757;28;20112;-46
2021/03/12 02:45:38;;;;;;;13.87;10.97;;;;;;;18.78;53.47;100077.47;2097754;28;20024;-45
2021/03/12 02:46:40;;;;;;;13.20;11.23;;;;;;;18.78;53.35;100077.47;2099271;28;20028;-45
2021/03/12 02:47:41;;;;;;;14.13;11.15;;;;;;;18.77;53.72;100075.78;2097933;28;20346;-45
2021/03/12 02:48:42;;;;;;;13.48;11.15;;;;;;;18.77;53.40;100081.22;2096847;28;20044;-46
2021/03/12 02:49:43;;;;;;;13.47;11.40;;;;;;;18.77;53.36;100069.47;2095232;28;20040;-45
2021/03/12 02:50:45;;;;;;;12.80;11.25;;;;;;;18.77;53.49;100070.31;2093675;28;20092;-45
2021/03/12 02:51:46;;;;;;;14.32;12.18;;;;;;;18.77;53.53;100075.78;2095393;28;20044;-46
2021/03/12 02:52:46;;;;;;;13.57;11.50;;;;;;;18.76;53.48;100068.56;2097133;28;20024;-45
2021/03/12 02:53:48;;;;;;;13.57;11.40;;;;;;;18.76;53.62;100068.56;2090975;28;20403;-45
2021/03/12 02:54:49;;;;;;;16.33;12.10;;;;;;;18.76;53.54;100063.09;2087521;28;20021;-46
2021/03/12 02:55:52;;;;;;;14.32;11.30;;;;;;;18.76;53.52;100063.09;2093625;28;21071;-46
2021/03/12 02:56:53;;;;;;;14.48;11.45;;;;;;;18.75;53.40;100058.63;2098587;28;20396;-45
2021/03/12 02:57:54;;;;;;;13.40;11.10;;;;;;;18.75;53.67;100057.78;2098626;28;20036;-45
2021/03/12 02:58:55;;;;;;;12.13;10.83;;;;;;;18.75;53.59;100055.06;2098820;28;20336;-47
2021/03/12 02:59:57;;;;;;;13.32;11.23;;;;;;;18.75;53.61;100061.38;2096860;28;20093;-45
2021/03/12 03:01:01;;;;;;;13.93;11.38;;;;;;;18.75;53.67;100050.44;2098534;28;20110;-45
2021/03/12 03:02:02;;;;;;;13.52;11.38;;;;;;;18.75;53.67;100057.78;2098408;28;20036;-46
2021/03/12 03:03:04;;;;;;;13.35;11.40;;;;;;;18.74;53.62;100050.59;2098136;28;20031;-45
2021/03/12 03:04:05;;;;;;;;;;;;;;;18.74;53.47;100054.19;2095176;28;20020;-44
2021/03/12 03:05:06;;;;;;;13.35;10.32;;;;;;;18.74;53.60;100053.31;2098671;28;20017;-44
2021/03/12 03:06:10;;;;;;;13.20;10.45;;;;;;;18.73;53.71;100047.00;2097903;28;20047;-46
2021/03/12 03:07:11;;;;;;;15.68;10.90;;;;;;;18.73;53.70;100049.72;2097907;28;20039;-45
2021/03/12 03:08:14;;;;;;;11.43;10.18;;;;;;;18.73;53.69;100041.53;2098146;28;20025;-45
2021/03/12 03:09:15;;;;;;;12.93;10.88;;;;;;;18.74;53.66;100040.53;2093565;28;20044;-45
2021/03/12 03:10:18;;;;;;;12.30;11.00;;;;;;;18.72;53.65;100037.09;2094676;28;20036;-45
2021/03/12 03:11:19;;;;;;;14.57;11.93;;;;;;;18.73;53.78;100043.41;2098319;28;20033;-46
2021/03/12 03:12:23;;;;;;;13.23;10.15;;;;;;;18.72;53.52;100039.84;2097735;28;20442;-46
2021/03/12 03:13:30;;;;;;;12.80;10.75;;;;;;;18.73;53.68;100046.16;2096407;28;20035;-45
2021/03/12 03:14:31;;;;;;;12.10;10.80;;;;;;;18.72;53.70;100039.84;2093564;28;20051;-45
2021/03/12 03:15:33;;;;;;;14.60;11.40;;;;;;;18.72;53.61;100045.28;2096165;28;20017;-45
2021/03/12 03:16:36;;;;;;;13.70;10.93;;;;;;;18.72;53.73;100037.09;2090468;28;20388;-45
2021/03/12 03:17:39;;;;;;;12.82;10.75;;;;;;;18.72;53.54;100034.38;2094781;28;20157;-46
2021/03/12 03:18:40;;;;;;;10.75;9.30;;;;;;;18.72;53.69;100038.97;2092328;28;20397;-46
2021/03/12 03:19:46;;;;;;;13.82;10.52;;;;;;;18.72;53.56;100042.56;2097027;28;20031;-46
2021/03/12 03:20:47;;;;;;;11.27;9.48;;;;;;;18.71;53.64;100043.56;2094444;28;20033;-45
2021/03/12 03:21:49;;;;;;;11.40;10.05;;;;;;;18.71;53.82;100037.25;2098575;28;20229;-46
2021/03/12 03:22:49;;;;;;;12.73;11.10;;;;;;;18.72;53.69;100036.25;2097256;28;20028;-46
2021/03/12 03:23:50;;;;;;;12.53;9.80;;;;;;;18.72;53.57;100038.97;2098445;28;20029;-46
2021/03/12 03:24:50;;;;;;;11.70;10.20;;;;;;;18.71;53.74;100032.63;2098606;28;20032;-45
2021/03/12 03:25:51;;;;;;;13.60;10.93;;;;;;;18.71;53.85;100037.25;2093894;28;20016;-46
2021/03/12 03:26:52;;;;;;;13.97;10.40;;;;;;;18.71;53.80;100042.69;2098690;28;20330;-45
2021/03/12 03:27:52;;;;;;;14.82;10.98;;;;;;;18.71;53.63;100032.63;2096686;28;20053;-45
2021/03/12 03:28:53;;;;;;;11.67;9.83;;;;;;;18.69;53.76;100045.59;2093002;28;20025;-45
2021/03/12 03:29:54;;;;;;;13.97;11.13;;;;;;;18.70;53.79;100041.84;2094170;28;20056;-46
2021/03/12 03:30:54;;;;;;;14.93;11.13;;;;;;;18.70;53.71;100036.38;2098107;28;20055;-46
2021/03/12 03:31:55;;;;;;;12.77;9.93;;;;;;;18.70;53.62;100041.84;2092296;28;20339;-45
2021/03/12 03:32:55;;;;;;;13.57;10.77;;;;;;;18.70;53.66;100041.84;2093973;28;20083;-46
2021/03/12 03:33:56;;;;;;;10.90;9.67;;;;;;;18.70;53.71;100044.56;2092538;28;20499;-45
2021/03/12 03:34:56;;;;;;;11.37;9.93;;;;;;;18.70;53.70;100041.84;2089850;28;20530;-46
2021/03/12 03:35:57;;;;;;;13.93;10.67;;;;;;;18.69;53.65;100045.59;2098280;28;20025;-45
2021/03/12 03:36:58;;;;;;;14.07;10.33;;;;;;;18.69;53.66;100040.13;2091127;28;20435;-45
2021/03/12 03:37:58;;;;;;;12.03;9.57;;;;;;;18.69;53.79;100040.13;2098110;28;20215;-45
2021/03/12 03:38:58;;;;;;;11.90;10.27;;;;;;;18.69;53.59;100044.72;2096870;28;20419;-46
2021/03/12 03:40:00;;;;;;;15.73;10.57;;;;;;;18.69;53.64;100039.25;2096228;28;20067;-46
2021/03/12 03:41:08;;;;;;;12.98;11.05;;;;;;;18.69;53.55;100034.69;2097745;28;20055;-45
2021/03/12 03:42:12;;;;;;;12.65;9.77;;;;;;;18.68;53.59;100038.41;2098572;28;20029;-45
2021/03/12 03:43:15;;;;;;;14.00;10.68;;;;;;;18.68;53.75;100038.41;2096799;28;20415;-45
2021/03/12 03:44:20;;;;;;;12.68;10.05;;;;;;;18.68;53.81;100046.59;2096983;28;20093;-45
2021/03/12 03:45:21;;;;;;;14.48;11.20;;;;;;;18.68;53.58;100060.25;2090451;28;20025;-45
2021/03/12 03:46:24;;;;;;;12.13;10.13;;;;;;;18.68;53.68;100057.50;2096127;28;20017;-46
2021/03/12 03:47:30;;;;;;;12.38;10.07;;;;;;;18.67;53.78;100061.25;2098400;28;20506;-48
2021/03/12 03:48:33;;;;;;;13.02;10.70;;;;;;;18.68;53.80;100060.25;2097806;28;20028;-45
2021/03/12 03:49:36;;;;;;;12.65;10.52;;;;;;;18.68;53.73;100054.78;2095483;28;20028;-46
2021/03/12 03:50:38;;;;;;;13.27;11.27;;;;;;;18.67;53.82;100053.06;2091534;28;20069;-44
2021/03/12 03:51:41;;;;;;;12.95;10.60;;;;;;;18.66;53.71;100045.88;2092035;28;20045;-45
2021/03/12 03:52:43;;;;;;;12.13;9.85;;;;;;;18.67;53.79;100050.34;2095072;28;20020;-45
2021/03/12 03:53:44;;;;;;;12.93;10.07;;;;;;;18.67;53.61;100053.06;2098698;28;20016;-45
2021/03/12 03:54:47;;;;;;;12.07;10.40;;;;;;;18.66;53.76;100056.78;2093161;28;20075;-45
2021/03/12 03:55:48;;;;;;;13.48;10.95;;;;;;;18.67;53.69;100054.91;2088209;28;20075;-44
2021/03/12 03:56:50;;;;;;;11.60;9.50;;;;;;;18.66;53.57;100048.59;2095934;28;20493;-45
2021/03/12 03:57:51;;;;;;;;;;;;;;;18.66;53.63;100048.59;2097645;28;20085;-46
2021/03/12 03:58:51;;;;;;;13.70;11.10;;;;;;;18.67;53.77;100047.63;2098379;28;20293;-45
2021/03/12 03:59:52;;;;;;;12.63;9.87;;;;;;;18.65;53.79;100044.16;2097116;28;20020;-46
2021/03/12 04:00:53;;;;;;;11.45;9.85;;;;;;;18.65;53.69;100030.50;2098304;28;20066;-45
2021/03/12 04:01:54;;;;;;;12.40;11.00;;;;;;;18.66;53.68;100029.50;2095306;28;20323;-45
2021/03/12 04:02:55;;;;;;;13.05;11.10;;;;;;;18.65;53.66;100027.78;2092446;28;20036;-46
2021/03/12 04:03:55;;;;;;;12.82;10.38;;;;;;;18.65;53.85;100022.31;2090696;28;20056;-45
2021/03/12 04:04:56;;;;;;;13.03;10.60;;;;;;;18.65;53.76;100027.78;2094191;28;20189;-45
2021/03/12 04:05:58;;;;;;;10.83;9.50;;;;;;;18.64;53.69;100023.31;2096958;28;20562;-45
2021/03/12 04:06:58;;;;;;;12.15;10.20;;;;;;;18.65;53.69;100030.50;2093503;28;20036;-45
2021/03/12 04:08:03;;;;;;;13.87;11.03;;;;;;;18.64;53.68;100036.97;2094436;28;20028;-46
2021/03/12 04:09:04;;;;;;;13.20;10.93;;;;;;;18.64;53.85;100036.97;2097289;28;20028;-45
2021/03/12 04:10:06;;;;;;;13.25;10.85;;;;;;;18.64;53.68;100045.16;2089593;28;20036;-45
2021/03/12 04:11:07;;;;;;;12.80;10.50;;;;;;;18.64;53.64;100042.41;2093081;28;20397;-45
2021/03/12 04:12:08;;;;;;;11.23;9.47;;;;;;;18.64;53.80;100035.13;2093243;28;20037;-45
2021/03/12 04:13:09;;;;;;;12.05;9.77;;;;;;;18.64;53.69;100054.22;2095505;28;20029;-45
2021/03/12 04:14:11;;;;;;;11.67;9.47;;;;;;;18.65;53.70;100049.63;2096957;28;20050;-45
2021/03/12 04:15:12;;;;;;;12.35;10.48;;;;;;;18.65;53.78;100049.63;2096150;28;20068;-46
2021/03/12 04:16:13;;;;;;;12.25;10.43;;;;;;;18.64;53.81;100043.31;2090570;28;20384;-47
2021/03/12 04:17:15;;;;;;;12.03;10.43;;;;;;;18.65;53.87;100038.69;2091515;28;20036;-45
2021/03/12 04:18:15;;;;;;;13.05;9.70;;;;;;;18.66;53.73;100051.31;2098120;28;20035;-45
2021/03/12 04:19:16;;;;;;;11.80;9.70;;;;;;;18.65;53.71;100044.16;2097155;28;20028;-46
2021/03/12 04:20:17;;;;;;;12.53;9.73;;;;;;;18.66;53.76;100045.00;2094513;28;20111;-45
2021/03/12 04:21:19;;;;;;;10.20;9.07;;;;;;;18.65;53.92;100046.91;2091763;28;20275;-46
2021/03/12 04:22:20;;;;;;;;;;;;;;;18.66;54.03;100051.31;2094056;28;20028;-44
2021/03/12 04:23:21;;;;;;;12.90;9.75;;;;;;;18.66;53.89;100050.47;2096798;28;19923;-45
2021/03/12 04:24:22;;;;;;;12.55;9.77;;;;;;;18.67;53.87;100049.44;2095637;28;20035;-45
2021/03/12 04:25:23;;;;;;;12.63;10.10;;;;;;;18.67;54.00;100052.19;2097492;28;20103;-46
2021/03/12 04:26:24;;;;;;;12.45;9.98;;;;;;;18.66;54.02;100045.88;2096169;28;20386;-45
2021/03/12 04:27:25;;;;;;;16.00;10.60;;;;;;;18.67;54.04;100046.72;2093840;28;20094;-45
2021/03/12 04:28:26;;;;;;;14.32;10.73;;;;;;;18.67;54.02;100041.25;2089511;28;20131;-47
2021/03/12 04:29:28;;;;;;;12.77;10.40;;;;;;;18.67;54.02;100047.63;2094982;28;20043;-49
2021/03/12 04:30:29;;;;;;;12.63;10.15;;;;;;;18.67;53.99;100047.63;2097011;28;20142;-47
2021/03/12 04:31:30;;;;;;;14.52;10.52;;;;;;;18.67;53.86;100063.09;2090840;28;20197;-45
2021/03/12 04:32:31;;;;;;;13.68;10.73;;;;;;;18.67;53.83;100058.53;2091133;28;20454;-44
2021/03/12 04:33:31;;;;;;;12.10;10.80;;;;;;;18.67;53.79;100061.25;2098168;28;20071;-46
2021/03/12 04:34:32;;;;;;;12.43;10.73;;;;;;;18.68;53.89;100060.25;2097664;28;20114;-45
2021/03/12 04:35:32;;;;;;;12.20;10.40;;;;;;;18.68;53.72;100062.13;2095724;28;20032;-45
2021/03/12 04:36:33;;;;;;;14.40;11.50;;;;;;;18.67;53.64;100061.25;2096208;28;20070;-46
2021/03/12 04:37:35;;;;;;;12.40;10.43;;;;;;;18.68;53.71;100057.50;2097488;28;20071;-45
2021/03/12 04:38:36;;;;;;;12.68;10.57;;;;;;;18.68;53.74;100065.69;2092770;28;20035;-45
2021/03/12 04:39:38;;;;;;;19.07;12.33;;;;;;;18.69;53.73;100069.28;2096932;28;20029;-45
2021/03/12 04:40:39;;;;;;;11.80;10.30;;;;;;;18.68;53.72;100065.69;2091373;28;20037;-46
2021/03/12 04:41:40;;;;;;;12.20;10.90;;;;;;;18.67;53.65;100064.00;2094657;28;20357;-45
2021/03/12 04:42:45;;;;;;;12.32;10.57;;;;;;;18.69;53.61;100066.56;2095694;28;20421;-45
2021/03/12 04:43:46;;;;;;;12.63;9.93;;;;;;;18.68;53.75;100060.25;2098178;28;20076;-44